Time;durP1;ratioP1;P1;durP2;ratioP2;P2;SDS_P1;SDS_P2;PMS_P1;PMS_P2;Temp;Humidity;BMP_temperature;BMP_pressure;BME280_temperature;BME280_humidity;BME280_pressure;Samples;Min_cycle;Max_cycle;Signal;HPM_P1;HPM_P2
2023/05/02 00:01:40;;;;;;;14.17;6.40;;;8.90;99.90;;;;;;4164288;28;20033;-62
2023/05/02 00:03:42;;;;;;;10.47;6.03;;;8.90;99.90;;;;;;4146152;28;20041;-68
2023/05/02 00:05:43;;;;;;;15.80;6.70;;;8.80;99.90;;;;;;4164096;28;20095;-70
2023/05/02 00:07:45;;;;;;;15.43;7.03;;;8.70;99.90;;;;;;4164095;28;20029;-66
2023/05/02 00:09:46;;;;;;;10.13;7.10;;;8.70;99.90;;;;;;4163491;28;20540;-61
2023/05/02 00:11:47;;;;;;;12.23;6.50;;;8.60;99.90;;;;;;4163974;28;20084;-69
2023/05/02 00:13:49;;;;;;;11.57;6.77;;;8.60;99.90;;;;;;4162626;28;20072;-70
2023/05/02 00:15:50;;;;;;;15.10;7.40;;;8.50;99.90;;;;;;4164370;28;20067;-70
2023/05/02 00:17:51;;;;;;;11.47;6.63;;;8.50;99.90;;;;;;4163267;28;20053;-71
2023/05/02 00:19:52;;;;;;;11.90;6.33;;;8.50;99.90;;;;;;4164449;28;20037;-67
2023/05/02 00:21:54;;;;;;;17.27;7.50;;;8.50;99.90;;;;;;4163110;28;20033;-68
2023/05/02 00:23:58;;;;;;;12.70;7.00;;;8.50;99.90;;;;;;4164225;28;20430;-69
2023/05/02 00:26:00;;;;;;;11.77;5.97;;;8.40;99.90;;;;;;4163249;28;20025;-68
2023/05/02 00:28:01;;;;;;;13.97;6.70;;;8.40;99.90;;;;;;4163174;28;20091;-68
2023/05/02 00:30:02;;;;;;;10.30;6.50;;;8.40;99.90;;;;;;4162827;28;20034;-68
2023/05/02 00:32:04;;;;;;;11.30;6.23;;;8.50;99.90;;;;;;4163583;28;20030;-71
2023/05/02 00:34:06;;;;;;;12.50;6.40;;;8.50;99.90;;;;;;4162893;28;20367;-67
2023/05/02 00:36:18;;;;;;;9.40;6.03;;;8.50;99.90;;;;;;4162868;28;20199;-70
2023/05/02 00:38:19;;;;;;;15.10;6.90;;;8.60;99.90;;;;;;4151135;28;20540;-67
2023/05/02 00:40:21;;;;;;;16.67;6.97;;;8.60;99.90;;;;;;4147218;28;20532;-70
2023/05/02 00:42:22;;;;;;;13.33;6.83;;;8.60;99.90;;;;;;4146867;28;20037;-70
2023/05/02 00:44:23;;;;;;;20.03;7.70;;;8.60;99.90;;;;;;4159895;28;20084;-71
2023/05/02 00:46:24;;;;;;;16.13;8.03;;;8.60;99.90;;;;;;4160056;28;20719;-69
2023/05/02 00:48:26;;;;;;;16.13;7.30;;;8.60;99.90;;;;;;4146515;28;20026;-69
2023/05/02 00:50:28;;;;;;;20.83;7.90;;;8.60;99.90;;;;;;4138279;28;20045;-69
2023/05/02 00:52:30;;;;;;;12.60;7.77;;;8.50;99.90;;;;;;4162018;28;20041;-68
2023/05/02 00:54:31;;;;;;;19.30;7.37;;;8.50;99.90;;;;;;4163142;28;20046;-69
2023/05/02 00:56:32;;;;;;;15.37;7.37;;;8.40;99.90;;;;;;4162434;28;20092;-68
2023/05/02 00:58:34;;;;;;;12.37;6.77;;;8.40;99.90;;;;;;4163473;28;20018;-67
2023/05/02 01:01:11;;;;;;;13.50;8.00;;;8.30;99.90;;;;;;4161647;28;20088;-70
2023/05/02 01:03:40;;;;;;;12.17;7.97;;;8.30;99.90;;;;;;4163316;28;20088;-66
2023/05/02 01:05:58;;;;;;;13.00;7.87;;;8.30;99.90;;;;;;4159904;28;20041;-70
2023/05/02 01:08:18;;;;;;;12.90;6.77;;;8.30;99.90;;;;;;4146745;28;20556;-69
2023/05/02 01:10:34;;;;;;;13.82;7.57;;;8.30;99.90;;;;;;4146252;28;20076;-71
2023/05/02 01:12:49;;;;;;;11.83;6.60;;;8.30;99.90;;;;;;4146900;28;20045;-67
2023/05/02 01:14:54;;;;;;;18.53;8.53;;;8.20;99.90;;;;;;4139173;28;20046;-72
2023/05/02 01:16:57;;;;;;;21.33;8.23;;;8.20;99.90;;;;;;4150720;28;20494;-70
2023/05/02 01:19:00;;;;;;;17.63;8.60;;;8.00;99.90;;;;;;4159071;28;20049;-72
2023/05/02 01:21:06;;;;;;;22.17;9.47;;;7.80;99.90;;;;;;4162845;28;20358;-65
2023/05/02 01:23:31;;;;;;;15.57;8.30;;;7.80;99.90;;;;;;4162331;28;20029;-71
2023/05/02 01:25:48;;;;;;;12.77;7.90;;;7.80;99.90;;;;;;4153752;28;20407;-68
2023/05/02 01:28:27;;;;;;;11.73;7.30;;;7.80;99.90;;;;;;4162311;28;20034;-69
2023/05/02 01:30:32;;;;;;;12.57;8.03;;;7.90;99.90;;;;;;4155716;28;20038;-71
2023/05/02 01:32:36;;;;;;;16.47;7.90;;;7.80;99.90;;;;;;4148521;28;20438;-71
2023/05/02 01:34:41;;;;;;;20.23;7.63;;;7.80;99.90;;;;;;4154710;28;20470;-71
2023/05/02 01:36:45;;;;;;;14.57;7.60;;;7.80;99.90;;;;;;4145722;28;20037;-70
2023/05/02 01:38:48;;;;;;;14.40;7.97;;;7.80;99.90;;;;;;4154414;28;20148;-70
2023/05/02 01:40:51;;;;;;;11.53;7.07;;;7.80;99.90;;;;;;4162048;28;20037;-72
2023/05/02 01:42:53;;;;;;;11.83;7.50;;;7.70;99.90;;;;;;4162750;28;20470;-70
2023/05/02 01:44:56;;;;;;;14.13;7.30;;;7.80;99.90;;;;;;4161587;28;20045;-67
2023/05/02 01:47:01;;;;;;;9.60;6.97;;;7.80;99.90;;;;;;4162686;28;20018;-71
2023/05/02 01:49:05;;;;;;;12.57;7.30;;;7.80;99.90;;;;;;4161938;28;20083;-68
2023/05/02 01:51:07;;;;;;;12.90;7.37;;;7.80;99.90;;;;;;4153290;28;20069;-71
2023/05/02 01:53:12;;;;;;;14.73;7.90;;;7.70;99.90;;;;;;4145625;28;20044;-66
2023/05/02 01:55:16;;;;;;;12.00;7.90;;;7.70;99.90;;;;;;4146191;28;20100;-71
2023/05/02 01:57:18;;;;;;;14.30;8.87;;;7.70;99.90;;;;;;4145275;28;20025;-66
2023/05/02 01:59:22;;;;;;;15.37;7.43;;;7.70;99.90;;;;;;4146406;28;20084;-71
2023/05/02 02:01:26;;;;;;;12.27;7.70;;;7.60;99.90;;;;;;4145206;28;20026;-66
2023/05/02 02:03:30;;;;;;;13.33;7.73;;;7.60;99.90;;;;;;4146504;28;20026;-72
2023/05/02 02:05:33;;;;;;;12.83;7.63;;;7.60;99.90;;;;;;4145207;28;20080;-70
2023/05/02 02:07:35;;;;;;;16.03;8.23;;;7.60;99.90;;;;;;4146477;28;20030;-71
2023/05/02 02:09:36;;;;;;;19.00;7.63;;;7.60;99.90;;;;;;4145220;28;20084;-71
2023/05/02 02:11:46;;;;;;;13.03;7.43;;;7.70;99.90;;;;;;4146301;28;20049;-71
2023/05/02 02:13:50;;;;;;;13.30;8.18;;;7.70;99.90;;;;;;4144503;28;20092;-65
2023/05/02 02:15:56;;;;;;;15.03;8.77;;;7.70;99.90;;;;;;4129001;28;20427;-64
2023/05/02 02:18:08;;;;;;;13.00;8.30;;;7.60;99.90;;;;;;4145155;28;20046;-71
2023/05/02 02:20:12;;;;;;;13.37;8.70;;;7.60;99.90;;;;;;4145183;28;20030;-65
2023/05/02 02:22:18;;;;;;;10.57;7.53;;;7.60;99.90;;;;;;4144786;28;20494;-70
2023/05/02 02:24:22;;;;;;;15.97;8.27;;;7.60;99.90;;;;;;4145833;28;20080;-65
2023/05/02 02:26:23;;;;;;;11.40;7.57;;;7.60;99.90;;;;;;4145152;28;20429;-66
2023/05/02 02:28:25;;;;;;;13.87;8.33;;;7.60;99.90;;;;;;4161401;28;20037;-71
2023/05/02 02:30:26;;;;;;;14.53;8.27;;;7.60;99.90;;;;;;4161884;28;20026;-69
2023/05/02 02:32:27;;;;;;;13.10;7.77;;;7.60;99.90;;;;;;4161298;28;20038;-71
2023/05/02 02:34:28;;;;;;;11.83;8.27;;;7.50;99.90;;;;;;4157494;28;20462;-71
2023/05/02 02:36:35;;;;;;;15.57;8.57;;;7.50;99.90;;;;;;4154886;28;20076;-71
2023/05/02 02:38:59;;;;;;;12.90;7.27;;;7.50;99.90;;;;;;4145227;28;20042;-70
2023/05/02 02:41:11;;;;;;;12.70;8.30;;;7.50;99.90;;;;;;4153747;28;20527;-71
2023/05/02 02:43:21;;;;;;;15.70;7.97;;;7.40;99.90;;;;;;4161434;28;20038;-69
2023/05/02 02:45:48;;;;;;;18.42;7.88;;;7.40;99.90;;;;;;4160477;28;20108;-65
2023/05/02 02:48:10;;;;;;;14.87;7.93;;;7.30;99.90;;;;;;4161358;28;20022;-69
2023/05/02 02:50:50;;;;;;;17.43;8.77;;;7.30;99.90;;;;;;4161561;28;20026;-70
2023/05/02 02:53:01;;;;;;;15.55;8.15;;;7.30;99.90;;;;;;4154112;28;20050;-71
2023/05/02 02:55:12;;;;;;;13.73;8.20;;;7.30;99.90;;;;;;4145881;28;20103;-71
2023/05/02 02:57:16;;;;;;;12.63;8.20;;;7.30;99.90;;;;;;4144523;28;20026;-71
2023/05/02 02:59:28;;;;;;;19.20;9.13;;;7.30;99.90;;;;;;4145622;28;20025;-69
2023/05/02 03:01:32;;;;;;;15.43;8.33;;;7.20;99.90;;;;;;4144046;28;20038;-71
2023/05/02 03:03:34;;;;;;;15.23;8.53;;;7.20;99.90;;;;;;4145159;28;20108;-71
2023/05/02 03:05:36;;;;;;;12.43;9.13;;;7.10;99.90;;;;;;4144007;28;20034;-70
2023/05/02 03:07:37;;;;;;;15.67;9.10;;;7.10;99.90;;;;;;4127829;28;20026;-72
2023/05/02 03:09:46;;;;;;;15.87;8.60;;;7.00;99.90;;;;;;4144925;28;20034;-70
2023/05/02 03:11:47;;;;;;;16.20;8.30;;;7.00;99.90;;;;;;4144962;28;20038;-70
2023/05/02 03:13:48;;;;;;;14.30;8.43;;;7.10;99.90;;;;;;4143955;28;20092;-71
2023/05/02 03:15:57;;;;;;;15.87;10.00;;;7.10;99.90;;;;;;4145111;28;20486;-72
2023/05/02 03:17:58;;;;;;;14.57;8.90;;;7.10;99.90;;;;;;4144789;28;20498;-69
2023/05/02 03:19:59;;;;;;;18.23;8.93;;;7.20;99.90;;;;;;4143427;28;20840;-72
2023/05/02 03:22:00;;;;;;;13.03;8.67;;;7.30;99.90;;;;;;4144624;28;20045;-71
2023/05/02 03:24:03;;;;;;;15.33;8.37;;;7.40;99.90;;;;;;4144235;28;20445;-69
2023/05/02 03:26:05;;;;;;;23.97;9.00;;;7.50;99.90;;;;;;4145352;28;20544;-69
2023/05/02 03:28:06;;;;;;;21.93;9.27;;;7.70;99.90;;;;;;4144219;28;20895;-68
2023/05/02 03:30:07;;;;;;;12.93;8.47;;;7.90;99.90;;;;;;4157623;28;20033;-67
2023/05/02 03:32:09;;;;;;;17.90;9.13;;;8.00;99.90;;;;;;4161860;28;20041;-69
2023/05/02 03:34:10;;;;;;;12.13;8.57;;;8.20;99.90;;;;;;4165030;28;20087;-70
2023/05/02 03:36:11;;;;;;;13.30;8.70;;;8.40;99.90;;;;;;4163671;28;20029;-65
2023/05/02 03:38:12;;;;;;;14.90;8.23;;;8.70;99.90;;;;;;4164477;28;20041;-70
2023/05/02 03:40:13;;;;;;;20.93;9.40;;;8.90;99.90;;;;;;4162496;28;20083;-69
2023/05/02 03:42:15;;;;;;;21.77;9.73;;;9.10;99.90;;;;;;4159002;28;20535;-71
2023/05/02 03:44:16;;;;;;;13.37;8.93;;;9.40;99.90;;;;;;4164043;28;20029;-72
2023/05/02 03:46:17;;;;;;;19.30;8.80;;;9.60;99.90;;;;;;4162424;28;20084;-70
2023/05/02 03:48:18;;;;;;;26.43;9.17;;;9.60;99.90;;;;;;4157405;28;20045;-67
2023/05/02 03:50:19;;;;;;;18.60;8.63;;;9.50;99.90;;;;;;4163890;28;20099;-70
2023/05/02 03:52:20;;;;;;;21.27;9.60;;;9.60;99.90;;;;;;4164669;28;20064;-70
2023/05/02 03:54:22;;;;;;;17.80;9.40;;;9.70;99.90;;;;;;4163593;28;20037;-70
2023/05/02 03:56:23;;;;;;;16.50;9.63;;;9.80;99.90;;;;;;4164634;28;20037;-70
2023/05/02 03:58:25;;;;;;;19.40;9.47;;;10.10;99.90;;;;;;4163167;28;20088;-69
2023/05/02 04:00:26;;;;;;;17.77;9.40;;;10.40;99.90;;;;;;4156364;28;20029;-71
2023/05/02 04:02:29;;;;;;;14.90;8.80;;;10.80;99.90;;;;;;4146575;28;20437;-67
2023/05/02 04:04:31;;;;;;;18.03;9.67;;;11.30;99.90;;;;;;4163406;28;20034;-68
2023/05/02 04:06:32;;;;;;;17.40;9.70;;;12.00;99.90;;;;;;4150687;28;20496;-69
2023/05/02 04:08:33;;;;;;;23.27;9.93;;;12.50;99.90;;;;;;4163416;28;20087;-70
2023/05/02 04:10:35;;;;;;;17.03;9.23;;;13.00;99.90;;;;;;4159046;28;20034;-71
2023/05/02 04:12:36;;;;;;;14.80;8.53;;;13.80;99.90;;;;;;4162480;28;20134;-72
2023/05/02 04:14:37;;;;;;;16.10;8.23;;;14.30;99.90;;;;;;4162087;28;20582;-72
2023/05/02 04:16:38;;;;;;;16.57;8.37;;;14.60;99.90;;;;;;4155637;28;20092;-71
2023/05/02 04:18:40;;;;;;;23.27;9.07;;;15.00;99.90;;;;;;4153876;28;20456;-65
2023/05/02 04:20:44;;;;;;;21.80;9.60;;;14.80;99.90;;;;;;4150239;28;20139;-67
2023/05/02 04:22:46;;;;;;;19.17;8.70;;;14.70;99.90;;;;;;4148589;28;20430;-75
2023/05/02 04:24:47;;;;;;;22.77;8.20;;;14.90;99.90;;;;;;4153632;28;20049;-66
2023/05/02 04:26:49;;;;;;;18.23;8.03;;;14.60;99.90;;;;;;4156206;28;20026;-77
2023/05/02 04:28:50;;;;;;;19.43;8.27;;;14.30;99.90;;;;;;4160469;28;20092;-61
2023/05/02 04:30:51;;;;;;;18.93;8.57;;;14.30;99.90;;;;;;4160715;28;20100;-72
2023/05/02 04:32:52;;;;;;;21.80;8.47;;;14.60;99.90;;;;;;4162554;28;20086;-62
2023/05/02 04:34:54;;;;;;;20.13;8.17;;;14.40;99.90;;;;;;4162051;28;20107;-68
2023/05/02 04:36:55;;;;;;;17.47;8.27;;;14.30;99.90;;;;;;4163020;28;20453;-79
2023/05/02 04:38:56;;;;;;;18.73;8.37;;;14.30;99.90;;;;;;4152463;28;20026;-73
2023/05/02 04:40:57;;;;;;;19.63;8.13;;;14.30;99.90;;;;;;4148139;28;20543;-74
2023/05/02 04:42:58;;;;;;;16.83;8.13;;;14.50;99.90;;;;;;4148372;28;20052;-74
2023/05/02 04:44:59;;;;;;;13.40;8.13;;;14.80;99.90;;;;;;4146727;28;20037;-73
2023/05/02 04:47:01;;;;;;;19.67;7.40;;;15.20;99.90;;;;;;4147347;28;20072;-68
2023/05/02 04:49:02;;;;;;;16.27;8.13;;;15.60;99.90;;;;;;4147123;28;20068;-66
2023/05/02 04:51:03;;;;;;;15.85;8.55;;;15.90;99.90;;;;;;4145629;28;20045;-69
2023/05/02 04:53:04;;;;;;;16.42;8.57;;;16.30;99.90;;;;;;4146877;28;20083;-75
2023/05/02 04:55:06;;;;;;;22.65;7.97;;;16.70;99.70;;;;;;4146089;28;20088;-70
2023/05/02 04:57:09;;;;;;;18.55;7.72;;;16.70;99.20;;;;;;4146798;28;20037;-73
2023/05/02 04:59:10;;;;;;;16.30;7.90;;;16.90;99.00;;;;;;4145054;28;20034;-75
2023/05/02 05:01:11;;;;;;;20.00;8.73;;;17.20;98.50;;;;;;4146550;28;20565;-69
2023/05/02 05:03:12;;;;;;;32.70;10.20;;;17.50;97.90;;;;;;4145881;28;20034;-74
2023/05/02 05:05:13;;;;;;;22.77;8.00;;;17.60;97.20;;;;;;4147095;28;20403;-72
2023/05/02 05:07:14;;;;;;;19.98;9.10;;;17.60;96.90;;;;;;4145632;28;20026;-72
2023/05/02 05:09:15;;;;;;;17.85;8.02;;;17.40;96.80;;;;;;4146954;28;20096;-77
2023/05/02 05:11:16;;;;;;;24.45;9.38;;;17.60;96.70;;;;;;4145615;28;20542;-71
2023/05/02 05:13:18;;;;;;;12.02;7.78;;;17.80;96.30;;;;;;4146626;28;20087;-69
2023/05/02 05:15:24;;;;;;;20.55;8.20;;;18.20;95.80;;;;;;4145667;28;20080;-70
2023/05/02 05:17:25;;;;;;;17.15;8.60;;;18.10;95.50;;;;;;4146217;28;20423;-75
2023/05/02 05:19:26;;;;;;;19.25;7.90;;;18.60;94.90;;;;;;4146001;28;20445;-77
2023/05/02 05:21:27;;;;;;;16.33;8.57;;;18.40;94.50;;;;;;4145841;28;20494;-74
2023/05/02 05:23:28;;;;;;;21.83;9.35;;;18.60;94.40;;;;;;4146350;28;20084;-74
2023/05/02 05:25:30;;;;;;;19.23;8.52;;;18.60;94.00;;;;;;4146059;28;20088;-74
2023/05/02 05:27:33;;;;;;;17.67;8.77;;;18.80;93.70;;;;;;4146505;28;20084;-69
2023/05/02 05:29:34;;;;;;;22.80;8.98;;;18.60;93.50;;;;;;4128022;28;20042;-74
2023/05/02 05:31:36;;;;;;;15.43;8.63;;;18.90;93.30;;;;;;4146417;28;20041;-74
2023/05/02 05:33:38;;;;;;;18.65;9.07;;;18.40;92.80;;;;;;4145496;28;20030;-69
2023/05/02 05:35:39;;;;;;;14.13;8.85;;;17.80;93.00;;;;;;4146081;28;20054;-72
2023/05/02 05:37:40;;;;;;;16.73;9.05;;;17.50;93.20;;;;;;4145187;28;20371;-75
2023/05/02 05:39:41;;;;;;;16.40;8.88;;;17.50;93.30;;;;;;4145899;28;20042;-72
2023/05/02 05:41:42;;;;;;;18.33;10.95;;;17.60;93.20;;;;;;4145113;28;20116;-73
2023/05/02 05:43:43;;;;;;;18.98;10.05;;;17.90;93.00;;;;;;4146030;28;20754;-75
2023/05/02 05:45:44;;;;;;;14.20;8.98;;;17.70;92.90;;;;;;4145475;28;20034;-63
2023/05/02 05:47:45;;;;;;;13.75;8.52;;;17.70;93.10;;;;;;4145830;28;20110;-75
2023/05/02 05:49:47;;;;;;;16.45;9.50;;;18.00;92.70;;;;;;4144830;28;20084;-71
2023/05/02 05:51:49;;;;;;;12.80;8.10;;;17.90;92.50;;;;;;4145592;28;20088;-74
2023/05/02 05:53:50;;;;;;;11.50;7.53;;;17.60;92.80;;;;;;4145496;28;20022;-70
2023/05/02 05:55:52;;;;;;;13.88;7.90;;;17.50;92.90;;;;;;4144046;28;20060;-69
2023/05/02 05:57:53;;;;;;;11.23;6.47;;;17.50;93.30;;;;;;4145737;28;20038;-61
2023/05/02 05:59:54;;;;;;;10.13;7.03;;;17.30;93.20;;;;;;4144948;28;20030;-73
2023/05/02 06:01:56;;;;;;;15.93;7.80;;;17.20;93.30;;;;;;4146176;28;20068;-74
2023/05/02 06:03:57;;;;;;;20.58;7.68;;;17.30;93.50;;;;;;4144886;28;20088;-71
2023/05/02 06:05:59;;;;;;;10.75;7.55;;;17.20;93.70;;;;;;4145698;28;20076;-73
2023/05/02 06:08:00;;;;;;;8.30;5.93;;;17.00;93.80;;;;;;4145085;28;20360;-75
2023/05/02 06:10:01;;;;;;;10.25;5.97;;;17.00;94.20;;;;;;4146047;28;20036;-68
2023/05/02 06:12:02;;;;;;;13.27;6.82;;;16.80;94.40;;;;;;4144095;28;20400;-71
2023/05/02 06:14:03;;;;;;;10.20;6.50;;;16.60;94.90;;;;;;4146063;28;20029;-61
2023/05/02 06:16:05;;;;;;;14.00;9.02;;;16.60;95.20;;;;;;4145066;28;20108;-73
2023/05/02 06:18:06;;;;;;;13.57;7.40;;;16.10;95.90;;;;;;4145565;28;20058;-74
2023/05/02 06:20:08;;;;;;;13.07;6.93;;;15.80;96.80;;;;;;4144836;28;20430;-74
2023/05/02 06:22:12;;;;;;;12.63;7.30;;;15.60;97.50;;;;;;4145056;28;20038;-74
2023/05/02 06:24:13;;;;;;;14.63;7.43;;;15.60;98.20;;;;;;4145053;28;20075;-74
2023/05/02 06:26:14;;;;;;;10.30;6.43;;;15.50;98.70;;;;;;4145286;28;20084;-73
2023/05/02 06:28:16;;;;;;;8.02;6.90;;;15.70;98.70;;;;;;4145137;28;20441;-74
2023/05/02 06:30:17;;;;;;;14.57;6.15;;;15.60;98.90;;;;;;4144212;28;20080;-73
2023/05/02 06:32:18;;;;;;;15.55;6.72;;;15.90;99.00;;;;;;4144994;28;20116;-74
2023/05/02 06:34:19;;;;;;;11.35;6.10;;;16.10;98.80;;;;;;4144649;28;20089;-74
2023/05/02 06:36:20;;;;;;;11.80;6.45;;;16.40;98.90;;;;;;4145726;28;20436;-72
2023/05/02 06:38:23;;;;;;;8.68;5.97;;;17.00;98.00;;;;;;4144655;28;20018;-71
2023/05/02 06:40:24;;;;;;;13.20;5.90;;;17.30;97.50;;;;;;4145864;28;20468;-74
2023/05/02 06:42:25;;;;;;;11.98;6.97;;;17.20;97.50;;;;;;4144654;28;20568;-75
2023/05/02 06:44:26;;;;;;;12.75;5.78;;;17.00;97.90;;;;;;4145716;28;20093;-73
2023/05/02 06:46:29;;;;;;;8.20;4.88;;;17.30;97.80;;;;;;4144583;28;20080;-73
2023/05/02 06:48:30;;;;;;;9.23;5.30;;;17.50;97.60;;;;;;4145465;28;20041;-74
2023/05/02 06:50:32;;;;;;;11.70;5.25;;;17.60;97.20;;;;;;4144190;28;20088;-74
2023/05/02 06:52:33;;;;;;;8.48;4.72;;;17.80;97.10;;;;;;4144762;28;20112;-67
2023/05/02 06:54:34;;;;;;;10.73;4.60;;;18.00;96.90;;;;;;4144888;28;20034;-71
2023/05/02 06:56:35;;;;;;;7.82;4.40;;;18.50;96.60;;;;;;4127189;28;20463;-72
2023/05/02 06:58:36;;;;;;;8.02;4.53;;;18.90;95.90;;;;;;4144634;28;20552;-66
2023/05/02 07:00:37;;;;;;;9.60;4.80;;;19.50;95.20;;;;;;4143877;28;20084;-74
2023/05/02 07:02:38;;;;;;;13.80;4.60;;;19.40;95.00;;;;;;4144500;28;20042;-63
2023/05/02 07:04:40;;;;;;;10.65;4.15;;;19.60;94.40;;;;;;4126515;28;20038;-74
2023/05/02 07:06:41;;;;;;;8.50;3.90;;;19.60;94.30;;;;;;4145026;28;20026;-74
2023/05/02 07:08:42;;;;;;;6.00;2.92;;;19.50;93.90;;;;;;4144331;28;20025;-74
2023/05/02 07:10:43;;;;;;;5.97;3.28;;;19.70;93.60;;;;;;4144881;28;20041;-76
2023/05/02 07:12:44;;;;;;;2.47;2.05;;;19.80;93.10;;;;;;4144159;28;20449;-69
2023/05/02 07:14:46;;;;;;;11.27;2.55;;;19.80;92.40;;;;;;4127585;28;20035;-69
2023/05/02 07:16:47;;;;;;;4.28;2.38;;;19.60;92.00;;;;;;4144274;28;20072;-75
2023/05/02 07:18:48;;;;;;;4.47;2.63;;;19.30;91.80;;;;;;4145092;28;20045;-71
2023/05/02 07:20:49;;;;;;;8.73;2.55;;;19.10;91.70;;;;;;4144112;28;20026;-74
2023/05/02 07:22:50;;;;;;;6.18;2.65;;;18.90;91.60;;;;;;4144879;28;20030;-75
2023/05/02 07:24:59;;;;;;;3.08;2.13;;;18.80;91.80;;;;;;4143690;28;20100;-73
2023/05/02 07:27:02;;;;;;;4.28;2.38;;;18.80;91.50;;;;;;4144804;28;20076;-72
2023/05/02 07:29:05;;;;;;;9.25;2.50;;;18.80;91.40;;;;;;4144573;28;20065;-69
2023/05/02 07:31:06;;;;;;;5.15;2.70;;;18.80;91.60;;;;;;4144143;28;20069;-71
2023/05/02 07:33:07;;;;;;;4.00;1.85;;;18.90;91.60;;;;;;4144461;28;20445;-69
2023/05/02 07:35:09;;;;;;;4.00;2.00;;;19.10;90.90;;;;;;4144006;28;20034;-75
2023/05/02 07:37:10;;;;;;;5.07;2.03;;;19.30;90.20;;;;;;4144922;28;20029;-76
2023/05/02 07:39:12;;;;;;;2.60;2.30;;;19.30;90.10;;;;;;4143384;28;20034;-75
2023/05/02 07:41:13;;;;;;;2.78;1.92;;;19.30;89.70;;;;;;4144973;28;20092;-74
2023/05/02 07:43:15;;;;;;;2.30;1.83;;;19.40;88.80;;;;;;4142982;28;20042;-74
2023/05/02 07:45:16;;;;;;;3.45;2.03;;;19.40;88.70;;;;;;4144666;28;20050;-74
2023/05/02 07:47:17;;;;;;;6.43;1.98;;;19.50;88.90;;;;;;4144424;28;20030;-74
2023/05/02 07:49:19;;;;;;;3.10;2.00;;;19.70;88.00;;;;;;4144661;28;20042;-75
2023/05/02 07:51:20;;;;;;;2.85;1.58;;;19.80;87.30;;;;;;4143746;28;20029;-74
2023/05/02 07:53:21;;;;;;;3.95;2.05;;;19.80;87.60;;;;;;4144442;28;20100;-73
2023/05/02 07:55:25;;;;;;;3.72;2.20;;;19.80;87.40;;;;;;4143787;28;20425;-69
2023/05/02 07:57:26;;;;;;;5.13;2.35;;;19.50;86.20;;;;;;4144817;28;20137;-75
2023/05/02 07:59:29;;;;;;;2.92;1.85;;;19.40;86.20;;;;;;4144153;28;20026;-70
2023/05/02 08:01:30;;;;;;;5.60;2.10;;;19.30;86.00;;;;;;4143992;28;20061;-72
2023/05/02 08:03:31;;;;;;;3.88;2.22;;;19.30;85.90;;;;;;4144081;28;20054;-62
2023/05/02 08:05:32;;;;;;;1.90;1.65;;;19.30;86.50;;;;;;4143640;28;20081;-75
2023/05/02 08:07:36;;;;;;;4.38;2.28;;;19.20;86.80;;;;;;4127321;28;20026;-75
2023/05/02 08:09:37;;;;;;;2.78;2.33;;;19.20;86.80;;;;;;4125624;28;20034;-74
2023/05/02 08:11:38;;;;;;;4.53;2.20;;;19.30;86.50;;;;;;4144564;28;20528;-71
2023/05/02 08:13:40;;;;;;;1.98;1.85;;;19.50;87.10;;;;;;4143574;28;20049;-67
2023/05/02 08:15:41;;;;;;;6.30;2.20;;;19.90;87.10;;;;;;4144324;28;20041;-73
2023/05/02 08:17:42;;;;;;;3.17;2.13;;;19.90;84.90;;;;;;4143897;28;20058;-62
2023/05/02 08:19:43;;;;;;;2.40;1.77;;;19.80;83.00;;;;;;4147730;28;20085;-62
2023/05/02 08:21:44;;;;;;;6.80;3.08;;;19.70;83.10;;;;;;4128855;28;20043;-62
2023/05/02 08:23:45;;;;;;;3.08;2.30;;;19.70;82.60;;;;;;4147660;28;20107;-69
2023/05/02 08:25:47;;;;;;;4.60;2.45;;;19.80;83.00;;;;;;4146110;28;20482;-71
2023/05/02 08:27:48;;;;;;;5.15;2.47;;;19.80;83.10;;;;;;4146862;28;20057;-69
2023/05/02 08:29:49;;;;;;;4.70;2.00;;;19.70;83.60;;;;;;4146108;28;20034;-70
2023/05/02 08:31:50;;;;;;;5.82;2.17;;;19.90;83.90;;;;;;4146815;28;20359;-75
2023/05/02 08:33:51;;;;;;;5.18;2.33;;;20.20;83.80;;;;;;4146749;28;20034;-71
2023/05/02 08:35:52;;;;;;;2.38;2.17;;;20.10;83.50;;;;;;4146474;28;20037;-74
2023/05/02 08:37:53;;;;;;;6.18;2.65;;;20.20;82.70;;;;;;4146981;28;20026;-62
2023/05/02 08:39:54;;;;;;;4.90;2.13;;;20.20;83.00;;;;;;4146110;28;20045;-68
2023/05/02 08:41:55;;;;;;;6.63;2.20;;;20.10;81.80;;;;;;4146738;28;20429;-69
2023/05/02 08:43:58;;;;;;;6.88;2.28;;;20.10;82.30;;;;;;4145767;28;20483;-62
2023/05/02 08:46:03;;;;;;;5.22;2.30;;;20.00;81.90;;;;;;4146952;28;20022;-74
2023/05/02 08:48:10;;;;;;;4.85;1.92;;;20.00;82.10;;;;;;4146103;28;20026;-65
2023/05/02 08:50:11;;;;;;;6.25;2.10;;;20.10;81.80;;;;;;4146435;28;20037;-76
2023/05/02 08:52:14;;;;;;;5.82;2.20;;;20.20;82.70;;;;;;4145700;28;20026;-74
2023/05/02 08:54:17;;;;;;;5.13;2.65;;;20.30;82.40;;;;;;4146732;28;20026;-71
2023/05/02 08:56:18;;;;;;;2.97;2.40;;;20.40;82.30;;;;;;4145816;28;20081;-62
2023/05/02 08:58:19;;;;;;;5.28;2.05;;;20.30;81.70;;;;;;4146469;28;20042;-72
2023/05/02 09:00:20;;;;;;;6.43;2.17;;;20.10;80.70;;;;;;4145604;28;20037;-62
2023/05/02 09:03:00;;;;;;;7.38;2.22;;;20.20;81.50;;;;;;4146002;28;20088;-74
2023/05/02 09:05:06;;;;;;;2.83;2.35;;;20.20;81.50;;;;;;4117424;28;20038;-74
2023/05/02 09:07:07;;;;;;;5.88;2.47;;;20.30;81.80;;;;;;4147051;28;20033;-67
2023/05/02 09:09:09;;;;;;;5.32;2.25;;;20.30;81.50;;;;;;4145875;28;20091;-62
2023/05/02 09:11:11;;;;;;;2.63;1.90;;;20.40;81.60;;;;;;4146975;28;20026;-61
2023/05/02 09:13:43;;;;;;;4.90;2.40;;;20.50;80.70;;;;;;4145975;28;20092;-62
2023/05/02 09:15:57;;;;;;;4.00;1.83;;;20.50;80.20;;;;;;4118824;28;20038;-62
2023/05/02 09:17:59;;;;;;;2.60;1.70;;;20.60;80.50;;;;;;4145852;28;20050;-73
2023/05/02 09:20:00;;;;;;;3.30;1.83;;;20.60;79.90;;;;;;4146298;28;20084;-63
2023/05/02 09:22:02;;;;;;;6.47;1.90;;;20.70;79.80;;;;;;4145091;28;20418;-74
2023/05/02 09:24:15;;;;;;;2.80;1.70;;;;;;;;;;4146091;28;20045;-73
2023/05/02 09:26:20;;;;;;;3.50;2.00;;;20.80;79.40;;;;;;4145290;28;20022;-73
2023/05/02 09:28:47;;;;;;;4.82;1.92;;;20.80;77.20;;;;;;4146348;28;20144;-75
2023/05/02 09:30:48;;;;;;;1.60;1.50;;;20.80;75.00;;;;;;4144927;28;20104;-72
2023/05/02 09:32:50;;;;;;;3.28;1.58;;;20.80;76.50;;;;;;4146276;28;20125;-71
2023/05/02 09:35:05;;;;;;;3.45;1.58;;;20.70;76.80;;;;;;4145102;28;20535;-75
2023/05/02 09:37:07;;;;;;;4.43;2.72;;;20.70;76.70;;;;;;4145527;28;20096;-70
2023/05/02 09:39:11;;;;;;;5.63;2.30;;;20.60;76.90;;;;;;4145131;28;20083;-70
2023/05/02 09:41:13;;;;;;;4.07;1.65;;;20.60;77.50;;;;;;4145967;28;20026;-75
2023/05/02 09:43:17;;;;;;;3.95;1.88;;;20.60;78.10;;;;;;4145528;28;20045;-74
2023/05/02 09:45:23;;;;;;;2.97;1.60;;;20.60;77.90;;;;;;4145612;28;20937;-70
2023/05/02 09:47:27;;;;;;;3.67;1.80;;;20.80;78.10;;;;;;4146216;28;20026;-76
2023/05/02 09:49:43;;;;;;;4.90;1.70;;;20.70;78.30;;;;;;4145477;28;20076;-73
2023/05/02 09:51:46;;;;;;;7.43;1.73;;;20.70;77.70;;;;;;4145566;28;20637;-75
2023/05/02 09:53:48;;;;;;;7.78;2.00;;;20.70;78.10;;;;;;4145460;28;20038;-75
2023/05/02 09:56:00;;;;;;;2.70;2.28;;;20.50;78.80;;;;;;4145585;28;20038;-75
2023/05/02 09:58:01;;;;;;;3.75;2.05;;;20.60;78.40;;;;;;4145240;28;20029;-67
2023/05/02 10:00:02;;;;;;;3.55;1.80;;;20.60;78.70;;;;;;4145826;28;20069;-71
2023/05/02 10:02:06;;;;;;;6.22;2.13;;;20.80;78.90;;;;;;4144563;28;20025;-74
2023/05/02 10:04:18;;;;;;;2.60;1.58;;;;;;;;;;4145701;28;20109;-65
2023/05/02 10:06:20;;;;;;;2.20;1.52;;;;;;;;;;4144774;28;20060;-73
2023/05/02 10:08:24;;;;;;;2.42;1.52;;;;;;;;;;4145861;28;20046;-74
2023/05/02 10:10:26;;;;;;;4.35;1.70;;;;;;;;;;4144782;28;20025;-72
2023/05/02 10:12:30;;;;;;;2.65;1.60;;;;;;;;;;4145998;28;20466;-74
2023/05/02 10:14:34;;;;;;;3.95;2.67;;;;;;;;;;4144723;28;20417;-73
2023/05/02 10:16:36;;;;;;;3.17;1.70;;;;;;;;;;4146159;28;20034;-75
2023/05/02 10:18:42;;;;;;;4.13;2.45;;;;;;;;;;4144827;28;20899;-74
2023/05/02 10:20:48;;;;;;;9.18;3.80;;;;;;;;;;4145920;28;20084;-68
2023/05/02 10:22:50;;;;;;;2.85;1.50;;;;;;;;;;4144739;28;20025;-74
2023/05/02 10:24:52;;;;;;;1.90;1.40;;;;;;;;;;4145797;28;20066;-74
2023/05/02 10:26:54;;;;;;;1.60;1.50;;;20.90;78.00;;;;;;4144395;28;20034;-73
2023/05/02 10:28:56;;;;;;;1.60;1.50;;;21.80;71.60;;;;;;4145353;28;20145;-73
2023/05/02 10:30:59;;;;;;;1.65;1.55;;;21.70;70.40;;;;;;4144769;28;20562;-72
2023/05/02 10:33:01;;;;;;;2.58;1.55;;;21.70;70.40;;;;;;4144505;28;20111;-75
2023/05/02 10:35:04;;;;;;;1.70;1.33;;;21.80;69.50;;;;;;4144708;28;20026;-71
2023/05/02 10:37:06;;;;;;;5.30;1.20;;;21.80;67.30;;;;;;4144597;28;20080;-71
2023/05/02 10:39:07;;;;;;;2.95;1.35;;;21.60;67.60;;;;;;4145297;28;20045;-71
2023/05/02 10:41:25;;;;;;;2.67;1.27;;;21.60;67.20;;;;;;4144215;28;20050;-71
2023/05/02 10:43:36;;;;;;;6.97;1.40;;;21.80;66.00;;;;;;4145142;28;20033;-75
2023/05/02 10:45:37;;;;;;;1.95;1.00;;;21.70;64.10;;;;;;4144802;28;20401;-73